sensor_id;sensor_type;location;lat;lon;timestamp;temperature;humidity
12446;DHT22;6287;50.984;7.022;2022-10-16T00:01:51;14.00;99.90
12446;DHT22;6287;50.984;7.022;2022-10-16T00:04:19;14.00;99.90
12446;DHT22;6287;50.984;7.022;2022-10-16T00:06:47;14.00;99.90
12446;DHT22;6287;50.984;7.022;2022-10-16T00:09:15;14.00;99.90
12446;DHT22;6287;50.984;7.022;2022-10-16T00:11:41;14.00;99.90
12446;DHT22;6287;50.984;7.022;2022-10-16T00:14:12;14.00;99.90
12446;DHT22;6287;50.984;7.022;2022-10-16T00:16:41;14.00;99.90
12446;DHT22;6287;50.984;7.022;2022-10-16T00:19:07;13.90;99.90
12446;DHT22;6287;50.984;7.022;2022-10-16T00:21:33;13.90;99.90
12446;DHT22;6287;50.984;7.022;2022-10-16T00:24:02;13.90;99.90
12446;DHT22;6287;50.984;7.022;2022-10-16T00:26:33;13.90;99.90
12446;DHT22;6287;50.984;7.022;2022-10-16T00:28:59;13.90;99.90
12446;DHT22;6287;50.984;7.022;2022-10-16T00:31:27;13.90;99.90
12446;DHT22;6287;50.984;7.022;2022-10-16T00:33:55;13.90;99.90
12446;DHT22;6287;50.984;7.022;2022-10-16T00:36:27;13.90;99.90
12446;DHT22;6287;50.984;7.022;2022-10-16T00:38:54;13.80;99.90
12446;DHT22;6287;50.984;7.022;2022-10-16T00:41:22;13.80;99.90
12446;DHT22;6287;50.984;7.022;2022-10-16T00:43:58;13.80;99.90
12446;DHT22;6287;50.984;7.022;2022-10-16T00:46:27;13.80;99.90
12446;DHT22;6287;50.984;7.022;2022-10-16T00:49:11;13.70;99.90
12446;DHT22;6287;50.984;7.022;2022-10-16T00:51:43;13.70;99.90
12446;DHT22;6287;50.984;7.022;2022-10-16T00:54:18;13.60;99.90
12446;DHT22;6287;50.984;7.022;2022-10-16T00:56:46;13.60;99.90
12446;DHT22;6287;50.984;7.022;2022-10-16T00:59:25;13.60;99.90
12446;DHT22;6287;50.984;7.022;2022-10-16T01:01:52;13.60;99.90
12446;DHT22;6287;50.984;7.022;2022-10-16T01:04:22;13.50;99.90
12446;DHT22;6287;50.984;7.022;2022-10-16T01:21:25;13.40;99.90
12446;DHT22;6287;50.984;7.022;2022-10-16T01:35:09;13.30;99.90
12446;DHT22;6287;50.984;7.022;2022-10-16T01:37:48;13.30;99.90
12446;DHT22;6287;50.984;7.022;2022-10-16T01:40:21;13.30;99.90
12446;DHT22;6287;50.984;7.022;2022-10-16T01:43:05;13.30;99.90
12446;DHT22;6287;50.984;7.022;2022-10-16T01:45:33;13.30;99.90
12446;DHT22;6287;50.984;7.022;2022-10-16T01:48:01;13.30;99.90
12446;DHT22;6287;50.984;7.022;2022-10-16T01:50:33;13.30;99.90
12446;DHT22;6287;50.984;7.022;2022-10-16T01:53:02;13.30;99.90
12446;DHT22;6287;50.984;7.022;2022-10-16T01:55:33;13.30;99.90
12446;DHT22;6287;50.984;7.022;2022-10-16T01:58:01;13.30;99.90
12446;DHT22;6287;50.984;7.022;2022-10-16T02:00:29;13.30;99.90
12446;DHT22;6287;50.984;7.022;2022-10-16T02:03:01;13.30;99.90
12446;DHT22;6287;50.984;7.022;2022-10-16T02:05:39;13.20;99.90
12446;DHT22;6287;50.984;7.022;2022-10-16T02:08:06;13.30;99.90
12446;DHT22;6287;50.984;7.022;2022-10-16T02:10:32;13.20;99.90
12446;DHT22;6287;50.984;7.022;2022-10-16T02:13:45;13.30;99.90
12446;DHT22;6287;50.984;7.022;2022-10-16T02:16:03;13.30;99.90
12446;DHT22;6287;50.984;7.022;2022-10-16T02:18:29;13.30;99.90
12446;DHT22;6287;50.984;7.022;2022-10-16T02:21:26;13.30;99.90
12446;DHT22;6287;50.984;7.022;2022-10-16T02:24:09;13.30;99.90
12446;DHT22;6287;50.984;7.022;2022-10-16T02:26:51;13.30;99.90
12446;DHT22;6287;50.984;7.022;2022-10-16T02:29:25;13.30;99.90
12446;DHT22;6287;50.984;7.022;2022-10-16T02:31:55;13.30;99.90
12446;DHT22;6287;50.984;7.022;2022-10-16T02:34:24;13.30;99.90
12446;DHT22;6287;50.984;7.022;2022-10-16T02:36:55;13.30;99.90
12446;DHT22;6287;50.984;7.022;2022-10-16T02:39:22;13.30;99.90
12446;DHT22;6287;50.984;7.022;2022-10-16T02:41:48;13.40;99.90
12446;DHT22;6287;50.984;7.022;2022-10-16T02:44:18;13.40;99.90
12446;DHT22;6287;50.984;7.022;2022-10-16T02:46:44;13.50;99.90
12446;DHT22;6287;50.984;7.022;2022-10-16T02:49:12;13.50;99.90
12446;DHT22;6287;50.984;7.022;2022-10-16T02:51:40;13.50;99.90
12446;DHT22;6287;50.984;7.022;2022-10-16T02:56:35;13.50;99.90
12446;DHT22;6287;50.984;7.022;2022-10-16T02:59:03;13.50;99.90
12446;DHT22;6287;50.984;7.022;2022-10-16T03:01:28;13.60;99.90
12446;DHT22;6287;50.984;7.022;2022-10-16T03:03:54;13.60;99.90
12446;DHT22;6287;50.984;7.022;2022-10-16T03:06:19;13.60;99.90
12446;DHT22;6287;50.984;7.022;2022-10-16T03:08:47;13.60;99.90
12446;DHT22;6287;50.984;7.022;2022-10-16T03:11:13;13.60;99.90
12446;DHT22;6287;50.984;7.022;2022-10-16T03:13:38;13.60;99.90
12446;DHT22;6287;50.984;7.022;2022-10-16T03:16:06;13.60;99.90
12446;DHT22;6287;50.984;7.022;2022-10-16T03:18:32;13.60;99.90
12446;DHT22;6287;50.984;7.022;2022-10-16T03:21:00;13.60;99.90
12446;DHT22;6287;50.984;7.022;2022-10-16T03:23:26;13.60;99.90
12446;DHT22;6287;50.984;7.022;2022-10-16T03:25:54;13.50;99.90
12446;DHT22;6287;50.984;7.022;2022-10-16T03:28:22;13.50;99.90
12446;DHT22;6287;50.984;7.022;2022-10-16T03:30:47;13.50;99.90
12446;DHT22;6287;50.984;7.022;2022-10-16T03:33:15;13.50;99.90
12446;DHT22;6287;50.984;7.022;2022-10-16T03:35:51;13.50;99.90
12446;DHT22;6287;50.984;7.022;2022-10-16T03:38:17;13.50;99.90
12446;DHT22;6287;50.984;7.022;2022-10-16T03:40:42;13.40;99.90
12446;DHT22;6287;50.984;7.022;2022-10-16T03:43:08;13.40;99.90
12446;DHT22;6287;50.984;7.022;2022-10-16T03:45:33;13.40;99.90
12446;DHT22;6287;50.984;7.022;2022-10-16T03:48:01;13.30;99.90
12446;DHT22;6287;50.984;7.022;2022-10-16T03:50:32;13.40;99.90
12446;DHT22;6287;50.984;7.022;2022-10-16T03:52:59;13.40;99.90
12446;DHT22;6287;50.984;7.022;2022-10-16T03:55:24;13.40;99.90
12446;DHT22;6287;50.984;7.022;2022-10-16T03:57:50;13.40;99.90
12446;DHT22;6287;50.984;7.022;2022-10-16T04:00:15;13.40;99.90
12446;DHT22;6287;50.984;7.022;2022-10-16T04:02:46;13.40;99.90
12446;DHT22;6287;50.984;7.022;2022-10-16T04:05:14;13.40;99.90
12446;DHT22;6287;50.984;7.022;2022-10-16T04:07:39;13.40;99.90
12446;DHT22;6287;50.984;7.022;2022-10-16T04:10:10;13.40;99.90
12446;DHT22;6287;50.984;7.022;2022-10-16T04:12:37;13.40;99.90
12446;DHT22;6287;50.984;7.022;2022-10-16T04:15:03;13.40;99.90
12446;DHT22;6287;50.984;7.022;2022-10-16T04:17:31;13.40;99.90
12446;DHT22;6287;50.984;7.022;2022-10-16T04:19:57;13.40;99.90
12446;DHT22;6287;50.984;7.022;2022-10-16T04:22:22;13.40;99.90
12446;DHT22;6287;50.984;7.022;2022-10-16T04:24:48;13.40;99.90
12446;DHT22;6287;50.984;7.022;2022-10-16T04:27:16;13.40;99.90
12446;DHT22;6287;50.984;7.022;2022-10-16T04:29:42;13.50;99.90
12446;DHT22;6287;50.984;7.022;2022-10-16T04:32:09;13.50;99.90
12446;DHT22;6287;50.984;7.022;2022-10-16T04:34:35;13.50;99.90
12446;DHT22;6287;50.984;7.022;2022-10-16T04:37:01;13.50;99.90
12446;DHT22;6287;50.984;7.022;2022-10-16T04:39:26;13.50;99.90
12446;DHT22;6287;50.984;7.022;2022-10-16T04:41:52;13.50;99.90
12446;DHT22;6287;50.984;7.022;2022-10-16T04:44:17;13.50;99.90
12446;DHT22;6287;50.984;7.022;2022-10-16T04:46:43;13.50;99.90
12446;DHT22;6287;50.984;7.022;2022-10-16T04:49:11;13.50;99.90
12446;DHT22;6287;50.984;7.022;2022-10-16T04:51:39;13.50;99.90
12446;DHT22;6287;50.984;7.022;2022-10-16T04:54:04;13.50;99.90
12446;DHT22;6287;50.984;7.022;2022-10-16T04:56:32;13.50;99.90
12446;DHT22;6287;50.984;7.022;2022-10-16T04:59:07;13.50;99.90
12446;DHT22;6287;50.984;7.022;2022-10-16T05:01:35;13.40;99.90
12446;DHT22;6287;50.984;7.022;2022-10-16T05:04:01;13.40;99.90
12446;DHT22;6287;50.984;7.022;2022-10-16T05:06:27;13.40;99.90
12446;DHT22;6287;50.984;7.022;2022-10-16T05:08:55;13.40;99.90
12446;DHT22;6287;50.984;7.022;2022-10-16T05:11:20;13.50;99.90
12446;DHT22;6287;50.984;7.022;2022-10-16T05:13:48;13.40;99.90
12446;DHT22;6287;50.984;7.022;2022-10-16T05:16:20;13.40;99.90
12446;DHT22;6287;50.984;7.022;2022-10-16T05:18:46;13.40;99.90
12446;DHT22;6287;50.984;7.022;2022-10-16T05:21:12;13.30;99.90
12446;DHT22;6287;50.984;7.022;2022-10-16T05:23:37;13.30;99.90
12446;DHT22;6287;50.984;7.022;2022-10-16T05:28:32;13.30;99.90
12446;DHT22;6287;50.984;7.022;2022-10-16T05:30:58;13.30;99.90
12446;DHT22;6287;50.984;7.022;2022-10-16T05:33:26;13.30;99.90
12446;DHT22;6287;50.984;7.022;2022-10-16T05:35:56;13.30;99.90
12446;DHT22;6287;50.984;7.022;2022-10-16T05:38:22;13.30;99.90
12446;DHT22;6287;50.984;7.022;2022-10-16T05:40:51;13.30;99.90
12446;DHT22;6287;50.984;7.022;2022-10-16T05:43:20;13.30;99.90
12446;DHT22;6287;50.984;7.022;2022-10-16T05:46:04;13.30;99.90
12446;DHT22;6287;50.984;7.022;2022-10-16T05:48:31;13.30;99.90
12446;DHT22;6287;50.984;7.022;2022-10-16T05:50:58;13.20;99.90
12446;DHT22;6287;50.984;7.022;2022-10-16T05:53:24;13.20;99.90
12446;DHT22;6287;50.984;7.022;2022-10-16T05:55:54;13.20;99.90
12446;DHT22;6287;50.984;7.022;2022-10-16T05:58:25;13.20;99.90
12446;DHT22;6287;50.984;7.022;2022-10-16T06:00:59;13.10;99.90
12446;DHT22;6287;50.984;7.022;2022-10-16T06:03:26;13.10;99.90
12446;DHT22;6287;50.984;7.022;2022-10-16T06:05:52;13.10;99.90
12446;DHT22;6287;50.984;7.022;2022-10-16T06:08:21;13.10;99.90
12446;DHT22;6287;50.984;7.022;2022-10-16T06:10:48;13.10;99.90
12446;DHT22;6287;50.984;7.022;2022-10-16T06:13:19;13.20;99.90
12446;DHT22;6287;50.984;7.022;2022-10-16T06:15:44;13.10;99.90
12446;DHT22;6287;50.984;7.022;2022-10-16T06:18:12;13.00;99.90
12446;DHT22;6287;50.984;7.022;2022-10-16T06:20:38;13.00;99.90
12446;DHT22;6287;50.984;7.022;2022-10-16T06:23:06;13.00;99.90
12446;DHT22;6287;50.984;7.022;2022-10-16T06:25:31;13.00;99.90
12446;DHT22;6287;50.984;7.022;2022-10-16T06:27:57;13.00;99.90
12446;DHT22;6287;50.984;7.022;2022-10-16T06:30:25;13.00;99.90
12446;DHT22;6287;50.984;7.022;2022-10-16T06:32:51;13.00;99.90
12446;DHT22;6287;50.984;7.022;2022-10-16T06:35:21;13.00;99.90
12446;DHT22;6287;50.984;7.022;2022-10-16T06:37:49;13.10;99.90
12446;DHT22;6287;50.984;7.022;2022-10-16T06:40:17;13.20;99.90
12446;DHT22;6287;50.984;7.022;2022-10-16T06:42:43;13.10;99.90
12446;DHT22;6287;50.984;7.022;2022-10-16T06:45:09;13.20;99.90
12446;DHT22;6287;50.984;7.022;2022-10-16T06:47:35;13.20;99.90
12446;DHT22;6287;50.984;7.022;2022-10-16T06:50:00;13.40;99.90
12446;DHT22;6287;50.984;7.022;2022-10-16T06:52:28;13.50;99.90
12446;DHT22;6287;50.984;7.022;2022-10-16T06:54:56;13.40;99.90
12446;DHT22;6287;50.984;7.022;2022-10-16T06:57:22;13.70;99.90
12446;DHT22;6287;50.984;7.022;2022-10-16T06:59:50;13.80;99.90
12446;DHT22;6287;50.984;7.022;2022-10-16T07:02:15;13.80;99.90
12446;DHT22;6287;50.984;7.022;2022-10-16T07:04:43;13.90;99.90
12446;DHT22;6287;50.984;7.022;2022-10-16T07:07:08;14.00;99.90
12446;DHT22;6287;50.984;7.022;2022-10-16T07:09:36;14.10;99.90
12446;DHT22;6287;50.984;7.022;2022-10-16T07:12:04;14.10;99.90
12446;DHT22;6287;50.984;7.022;2022-10-16T07:14:30;14.10;99.90
12446;DHT22;6287;50.984;7.022;2022-10-16T07:16:55;14.30;99.90
12446;DHT22;6287;50.984;7.022;2022-10-16T07:19:23;14.30;99.90
12446;DHT22;6287;50.984;7.022;2022-10-16T07:21:53;14.40;99.90
12446;DHT22;6287;50.984;7.022;2022-10-16T07:24:18;14.80;99.90
12446;DHT22;6287;50.984;7.022;2022-10-16T07:26:45;14.80;99.90
12446;DHT22;6287;50.984;7.022;2022-10-16T07:29:18;14.90;99.90
12446;DHT22;6287;50.984;7.022;2022-10-16T07:31:48;15.00;99.90
12446;DHT22;6287;50.984;7.022;2022-10-16T07:34:19;15.10;99.90
12446;DHT22;6287;50.984;7.022;2022-10-16T07:36:52;15.20;99.90
12446;DHT22;6287;50.984;7.022;2022-10-16T07:39:18;15.20;99.90
12446;DHT22;6287;50.984;7.022;2022-10-16T07:41:46;15.20;99.90
12446;DHT22;6287;50.984;7.022;2022-10-16T07:44:11;15.20;99.90
12446;DHT22;6287;50.984;7.022;2022-10-16T07:46:37;15.20;99.90
12446;DHT22;6287;50.984;7.022;2022-10-16T07:49:03;15.20;99.90
12446;DHT22;6287;50.984;7.022;2022-10-16T07:53:57;15.20;99.90
12446;DHT22;6287;50.984;7.022;2022-10-16T07:56:23;15.20;99.90
12446;DHT22;6287;50.984;7.022;2022-10-16T07:58:52;15.30;99.90
12446;DHT22;6287;50.984;7.022;2022-10-16T08:01:20;15.50;99.90
12446;DHT22;6287;50.984;7.022;2022-10-16T08:03:50;15.60;99.90
12446;DHT22;6287;50.984;7.022;2022-10-16T08:06:17;15.80;99.90
12446;DHT22;6287;50.984;7.022;2022-10-16T08:08:45;15.70;99.90
12446;DHT22;6287;50.984;7.022;2022-10-16T08:11:13;15.90;99.90
12446;DHT22;6287;50.984;7.022;2022-10-16T08:13:42;16.00;99.90
12446;DHT22;6287;50.984;7.022;2022-10-16T08:16:08;16.00;99.90
12446;DHT22;6287;50.984;7.022;2022-10-16T08:18:36;16.20;99.90
12446;DHT22;6287;50.984;7.022;2022-10-16T08:21:02;16.40;99.90
12446;DHT22;6287;50.984;7.022;2022-10-16T08:23:31;16.60;99.90
12446;DHT22;6287;50.984;7.022;2022-10-16T08:26:05;16.80;99.90
12446;DHT22;6287;50.984;7.022;2022-10-16T08:28:34;17.30;99.90
12446;DHT22;6287;50.984;7.022;2022-10-16T08:31:12;17.30;99.90
12446;DHT22;6287;50.984;7.022;2022-10-16T08:33:40;17.50;99.90
12446;DHT22;6287;50.984;7.022;2022-10-16T08:36:07;17.80;99.90
12446;DHT22;6287;50.984;7.022;2022-10-16T08:49:29;17.80;99.90
12446;DHT22;6287;50.984;7.022;2022-10-16T08:51:58;17.90;99.90
12446;DHT22;6287;50.984;7.022;2022-10-16T08:54:34;18.10;99.90
12446;DHT22;6287;50.984;7.022;2022-10-16T08:57:23;18.20;99.90
12446;DHT22;6287;50.984;7.022;2022-10-16T08:59:52;18.40;99.90
12446;DHT22;6287;50.984;7.022;2022-10-16T09:15:52;19.20;99.90
12446;DHT22;6287;50.984;7.022;2022-10-16T09:18:38;19.30;99.90
12446;DHT22;6287;50.984;7.022;2022-10-16T09:21:27;19.40;99.90
12446;DHT22;6287;50.984;7.022;2022-10-16T09:24:00;19.50;99.90
12446;DHT22;6287;50.984;7.022;2022-10-16T09:26:30;19.60;99.90
12446;DHT22;6287;50.984;7.022;2022-10-16T09:29:00;19.70;99.90
12446;DHT22;6287;50.984;7.022;2022-10-16T09:31:28;19.70;99.90
12446;DHT22;6287;50.984;7.022;2022-10-16T09:33:57;19.90;99.90
12446;DHT22;6287;50.984;7.022;2022-10-16T09:36:27;20.00;99.90
12446;DHT22;6287;50.984;7.022;2022-10-16T09:39:08;20.10;99.90
12446;DHT22;6287;50.984;7.022;2022-10-16T09:41:42;20.20;99.90
12446;DHT22;6287;50.984;7.022;2022-10-16T09:44:30;20.30;99.90
12446;DHT22;6287;50.984;7.022;2022-10-16T09:49:31;20.40;99.90
12446;DHT22;6287;50.984;7.022;2022-10-16T09:52:14;20.50;99.90
12446;DHT22;6287;50.984;7.022;2022-10-16T09:54:55;20.60;99.90
12446;DHT22;6287;50.984;7.022;2022-10-16T09:57:26;20.70;99.90
12446;DHT22;6287;50.984;7.022;2022-10-16T09:59:56;20.80;99.90
12446;DHT22;6287;50.984;7.022;2022-10-16T10:04:59;21.00;99.90
12446;DHT22;6287;50.984;7.022;2022-10-16T10:07:31;21.10;99.90
12446;DHT22;6287;50.984;7.022;2022-10-16T10:10:03;21.30;99.90
12446;DHT22;6287;50.984;7.022;2022-10-16T10:12:30;21.30;99.90
12446;DHT22;6287;50.984;7.022;2022-10-16T10:15:15;21.40;99.90
12446;DHT22;6287;50.984;7.022;2022-10-16T10:17:57;21.50;99.90
12446;DHT22;6287;50.984;7.022;2022-10-16T10:20:27;21.60;99.90
12446;DHT22;6287;50.984;7.022;2022-10-16T10:22:54;21.70;99.90
12446;DHT22;6287;50.984;7.022;2022-10-16T10:36:37;22.30;99.90
12446;DHT22;6287;50.984;7.022;2022-10-16T10:47:27;21.90;99.90
12446;DHT22;6287;50.984;7.022;2022-10-16T11:08:10;22.60;99.90
12446;DHT22;6287;50.984;7.022;2022-10-16T11:10:47;22.80;99.90
12446;DHT22;6287;50.984;7.022;2022-10-16T11:15:51;22.80;99.20
12446;DHT22;6287;50.984;7.022;2022-10-16T11:18:25;22.60;99.90
12446;DHT22;6287;50.984;7.022;2022-10-16T11:20:56;22.40;99.20
12446;DHT22;6287;50.984;7.022;2022-10-16T11:23:33;22.30;99.70
12446;DHT22;6287;50.984;7.022;2022-10-16T11:26:04;22.30;99.90
12446;DHT22;6287;50.984;7.022;2022-10-16T11:31:24;22.90;99.90
12446;DHT22;6287;50.984;7.022;2022-10-16T11:39:22;23.70;99.00
12446;DHT22;6287;50.984;7.022;2022-10-16T11:42:05;24.00;97.70
12446;DHT22;6287;50.984;7.022;2022-10-16T11:49:46;23.80;96.00
12446;DHT22;6287;50.984;7.022;2022-10-16T11:57:51;23.50;97.00
12446;DHT22;6287;50.984;7.022;2022-10-16T12:00:34;23.30;97.60
12446;DHT22;6287;50.984;7.022;2022-10-16T12:08:49;23.80;96.40
12446;DHT22;6287;50.984;7.022;2022-10-16T12:11:35;23.80;96.60
12446;DHT22;6287;50.984;7.022;2022-10-16T12:19:17;24.80;93.90
12446;DHT22;6287;50.984;7.022;2022-10-16T12:21:46;24.70;95.50
12446;DHT22;6287;50.984;7.022;2022-10-16T12:26:52;24.60;93.80
12446;DHT22;6287;50.984;7.022;2022-10-16T12:29:39;24.70;94.20
12446;DHT22;6287;50.984;7.022;2022-10-16T12:32:30;24.70;93.40
12446;DHT22;6287;50.984;7.022;2022-10-16T12:34:57;24.90;94.30
12446;DHT22;6287;50.984;7.022;2022-10-16T12:37:37;25.20;93.00
12446;DHT22;6287;50.984;7.022;2022-10-16T12:40:31;25.40;95.30
12446;DHT22;6287;50.984;7.022;2022-10-16T12:43:10;25.50;93.10
12446;DHT22;6287;50.984;7.022;2022-10-16T12:45:38;25.50;95.20
12446;DHT22;6287;50.984;7.022;2022-10-16T12:48:21;25.50;94.60
12446;DHT22;6287;50.984;7.022;2022-10-16T12:50:47;25.40;93.90
12446;DHT22;6287;50.984;7.022;2022-10-16T12:53:24;25.30;91.20
12446;DHT22;6287;50.984;7.022;2022-10-16T12:56:15;25.20;93.70
12446;DHT22;6287;50.984;7.022;2022-10-16T13:11:20;23.70;94.30
12446;DHT22;6287;50.984;7.022;2022-10-16T13:16:49;23.30;94.10
12446;DHT22;6287;50.984;7.022;2022-10-16T13:24:53;24.10;93.20
12446;DHT22;6287;50.984;7.022;2022-10-16T13:33:04;24.00;94.20
12446;DHT22;6287;50.984;7.022;2022-10-16T13:35:36;23.80;94.40
12446;DHT22;6287;50.984;7.022;2022-10-16T13:38:12;23.60;94.80
12446;DHT22;6287;50.984;7.022;2022-10-16T13:43:44;23.30;94.40
12446;DHT22;6287;50.984;7.022;2022-10-16T13:46:19;23.10;94.60
12446;DHT22;6287;50.984;7.022;2022-10-16T13:48:57;22.90;94.80
12446;DHT22;6287;50.984;7.022;2022-10-16T13:51:25;22.80;94.40
12446;DHT22;6287;50.984;7.022;2022-10-16T13:53:51;22.70;97.30
12446;DHT22;6287;50.984;7.022;2022-10-16T13:56:20;22.60;95.80
12446;DHT22;6287;50.984;7.022;2022-10-16T13:58:57;22.40;97.00
12446;DHT22;6287;50.984;7.022;2022-10-16T14:01:30;22.30;96.40
12446;DHT22;6287;50.984;7.022;2022-10-16T14:04:07;22.20;98.20
12446;DHT22;6287;50.984;7.022;2022-10-16T14:06:35;22.10;98.00
12446;DHT22;6287;50.984;7.022;2022-10-16T14:11:48;21.90;98.30
12446;DHT22;6287;50.984;7.022;2022-10-16T14:14:19;21.80;98.30
12446;DHT22;6287;50.984;7.022;2022-10-16T14:16:48;21.70;99.10
12446;DHT22;6287;50.984;7.022;2022-10-16T14:24:14;21.60;99.90
12446;DHT22;6287;50.984;7.022;2022-10-16T14:26:49;21.60;99.90
12446;DHT22;6287;50.984;7.022;2022-10-16T14:29:19;21.50;99.90
12446;DHT22;6287;50.984;7.022;2022-10-16T14:31:59;21.40;99.90
12446;DHT22;6287;50.984;7.022;2022-10-16T14:34:36;21.40;99.90
12446;DHT22;6287;50.984;7.022;2022-10-16T14:37:27;21.30;99.90
12446;DHT22;6287;50.984;7.022;2022-10-16T14:39:58;21.40;99.90
12446;DHT22;6287;50.984;7.022;2022-10-16T14:42:25;21.40;99.90
12446;DHT22;6287;50.984;7.022;2022-10-16T14:44:54;21.40;99.90
12446;DHT22;6287;50.984;7.022;2022-10-16T14:47:25;21.40;99.90
12446;DHT22;6287;50.984;7.022;2022-10-16T14:49:55;21.40;99.90
12446;DHT22;6287;50.984;7.022;2022-10-16T14:52:23;21.40;99.90
12446;DHT22;6287;50.984;7.022;2022-10-16T14:54:49;21.40;99.90
12446;DHT22;6287;50.984;7.022;2022-10-16T14:57:20;21.40;99.90
12446;DHT22;6287;50.984;7.022;2022-10-16T14:59:47;21.50;99.90
12446;DHT22;6287;50.984;7.022;2022-10-16T15:04:48;21.50;99.90
12446;DHT22;6287;50.984;7.022;2022-10-16T15:07:16;21.40;99.90
12446;DHT22;6287;50.984;7.022;2022-10-16T15:09:47;21.20;99.90
12446;DHT22;6287;50.984;7.022;2022-10-16T15:12:15;21.10;99.90
12446;DHT22;6287;50.984;7.022;2022-10-16T15:14:41;20.90;99.90
12446;DHT22;6287;50.984;7.022;2022-10-16T15:17:10;20.80;99.90
12446;DHT22;6287;50.984;7.022;2022-10-16T15:19:35;20.80;99.90
12446;DHT22;6287;50.984;7.022;2022-10-16T15:22:03;20.80;99.90
12446;DHT22;6287;50.984;7.022;2022-10-16T15:24:31;20.70;99.90
12446;DHT22;6287;50.984;7.022;2022-10-16T15:26:57;20.60;99.90
12446;DHT22;6287;50.984;7.022;2022-10-16T15:29:22;20.60;99.90
12446;DHT22;6287;50.984;7.022;2022-10-16T15:31:50;20.50;99.90
12446;DHT22;6287;50.984;7.022;2022-10-16T15:34:18;20.50;99.90
12446;DHT22;6287;50.984;7.022;2022-10-16T15:36:48;20.40;99.90
12446;DHT22;6287;50.984;7.022;2022-10-16T15:39:20;20.30;99.90
12446;DHT22;6287;50.984;7.022;2022-10-16T15:41:51;20.20;99.90
12446;DHT22;6287;50.984;7.022;2022-10-16T15:44:20;20.10;99.90
12446;DHT22;6287;50.984;7.022;2022-10-16T15:46:48;20.10;99.90
12446;DHT22;6287;50.984;7.022;2022-10-16T15:49:16;20.00;99.90
12446;DHT22;6287;50.984;7.022;2022-10-16T15:51:42;20.00;99.90
12446;DHT22;6287;50.984;7.022;2022-10-16T15:54:12;19.90;99.90
12446;DHT22;6287;50.984;7.022;2022-10-16T15:56:37;19.90;99.90
12446;DHT22;6287;50.984;7.022;2022-10-16T15:59:06;19.80;99.90
12446;DHT22;6287;50.984;7.022;2022-10-16T16:01:35;19.80;99.90
12446;DHT22;6287;50.984;7.022;2022-10-16T16:04:00;19.70;99.90
12446;DHT22;6287;50.984;7.022;2022-10-16T16:06:26;19.70;99.90
12446;DHT22;6287;50.984;7.022;2022-10-16T16:08:52;19.60;99.90
12446;DHT22;6287;50.984;7.022;2022-10-16T16:11:18;19.50;99.90
12446;DHT22;6287;50.984;7.022;2022-10-16T16:13:46;19.40;99.90
12446;DHT22;6287;50.984;7.022;2022-10-16T16:16:14;19.40;99.90
12446;DHT22;6287;50.984;7.022;2022-10-16T16:18:45;19.30;99.90
12446;DHT22;6287;50.984;7.022;2022-10-16T16:21:12;19.30;99.90
12446;DHT22;6287;50.984;7.022;2022-10-16T16:23:37;19.20;99.90
12446;DHT22;6287;50.984;7.022;2022-10-16T16:28:42;19.10;99.90
12446;DHT22;6287;50.984;7.022;2022-10-16T16:31:10;19.00;99.90
12446;DHT22;6287;50.984;7.022;2022-10-16T16:33:35;19.00;99.90
12446;DHT22;6287;50.984;7.022;2022-10-16T16:36:03;19.00;99.90
12446;DHT22;6287;50.984;7.022;2022-10-16T16:38:29;18.90;99.90
12446;DHT22;6287;50.984;7.022;2022-10-16T16:40:55;18.90;99.90
12446;DHT22;6287;50.984;7.022;2022-10-16T16:43:25;18.80;99.90
12446;DHT22;6287;50.984;7.022;2022-10-16T16:45:51;18.80;99.90
12446;DHT22;6287;50.984;7.022;2022-10-16T16:48:20;18.80;99.90
12446;DHT22;6287;50.984;7.022;2022-10-16T16:50:46;18.70;99.90
12446;DHT22;6287;50.984;7.022;2022-10-16T16:53:11;18.70;99.90
12446;DHT22;6287;50.984;7.022;2022-10-16T16:55:37;18.60;99.90
12446;DHT22;6287;50.984;7.022;2022-10-16T16:58:02;18.60;99.90
12446;DHT22;6287;50.984;7.022;2022-10-16T17:00:30;18.50;99.90
12446;DHT22;6287;50.984;7.022;2022-10-16T17:02:56;18.50;99.90
12446;DHT22;6287;50.984;7.022;2022-10-16T17:07:58;18.50;99.90
12446;DHT22;6287;50.984;7.022;2022-10-16T17:10:23;18.50;99.90
12446;DHT22;6287;50.984;7.022;2022-10-16T17:12:51;18.40;99.90
12446;DHT22;6287;50.984;7.022;2022-10-16T17:15:19;18.40;99.90
12446;DHT22;6287;50.984;7.022;2022-10-16T17:17:45;18.40;99.90
12446;DHT22;6287;50.984;7.022;2022-10-16T17:20:10;18.40;99.90
12446;DHT22;6287;50.984;7.022;2022-10-16T17:22:36;18.40;99.90
12446;DHT22;6287;50.984;7.022;2022-10-16T17:25:04;18.30;99.90
12446;DHT22;6287;50.984;7.022;2022-10-16T17:27:31;18.30;99.90
12446;DHT22;6287;50.984;7.022;2022-10-16T17:29:56;18.30;99.90
12446;DHT22;6287;50.984;7.022;2022-10-16T17:32:24;18.30;99.90
12446;DHT22;6287;50.984;7.022;2022-10-16T17:34:52;18.30;99.90
12446;DHT22;6287;50.984;7.022;2022-10-16T17:37:20;18.30;99.90
12446;DHT22;6287;50.984;7.022;2022-10-16T17:39:49;18.30;99.90
12446;DHT22;6287;50.984;7.022;2022-10-16T17:42:20;18.30;99.90
12446;DHT22;6287;50.984;7.022;2022-10-16T17:44:48;18.30;99.90
12446;DHT22;6287;50.984;7.022;2022-10-16T17:47:16;18.20;99.90
12446;DHT22;6287;50.984;7.022;2022-10-16T17:49:41;18.20;99.90
12446;DHT22;6287;50.984;7.022;2022-10-16T17:52:09;18.20;99.90
12446;DHT22;6287;50.984;7.022;2022-10-16T17:54:34;18.20;99.90
12446;DHT22;6287;50.984;7.022;2022-10-16T17:57:00;18.20;99.90
12446;DHT22;6287;50.984;7.022;2022-10-16T17:59:26;18.20;99.90
12446;DHT22;6287;50.984;7.022;2022-10-16T18:01:52;18.10;99.90
12446;DHT22;6287;50.984;7.022;2022-10-16T18:04:23;18.20;99.90
12446;DHT22;6287;50.984;7.022;2022-10-16T18:06:48;18.10;99.90
12446;DHT22;6287;50.984;7.022;2022-10-16T18:09:16;18.10;99.90
12446;DHT22;6287;50.984;7.022;2022-10-16T18:11:43;18.10;99.90
12446;DHT22;6287;50.984;7.022;2022-10-16T18:14:12;18.00;99.90
12446;DHT22;6287;50.984;7.022;2022-10-16T18:16:38;18.10;99.90
12446;DHT22;6287;50.984;7.022;2022-10-16T18:19:06;18.00;99.90
12446;DHT22;6287;50.984;7.022;2022-10-16T18:21:34;18.00;99.90
12446;DHT22;6287;50.984;7.022;2022-10-16T18:24:02;18.00;99.90
12446;DHT22;6287;50.984;7.022;2022-10-16T18:26:27;18.00;99.90
12446;DHT22;6287;50.984;7.022;2022-10-16T18:28:54;18.00;99.90
12446;DHT22;6287;50.984;7.022;2022-10-16T18:31:24;18.00;99.90
12446;DHT22;6287;50.984;7.022;2022-10-16T18:33:57;18.00;99.90
12446;DHT22;6287;50.984;7.022;2022-10-16T18:36:25;18.00;99.90
12446;DHT22;6287;50.984;7.022;2022-10-16T18:38:56;17.90;99.90
12446;DHT22;6287;50.984;7.022;2022-10-16T18:41:22;17.90;99.90
12446;DHT22;6287;50.984;7.022;2022-10-16T18:43:47;17.90;99.90
12446;DHT22;6287;50.984;7.022;2022-10-16T18:46:20;17.90;99.90
12446;DHT22;6287;50.984;7.022;2022-10-16T18:48:47;17.90;99.90
12446;DHT22;6287;50.984;7.022;2022-10-16T18:51:20;17.90;99.90
12446;DHT22;6287;50.984;7.022;2022-10-16T18:53:48;17.80;99.90
12446;DHT22;6287;50.984;7.022;2022-10-16T18:56:16;17.80;99.90
12446;DHT22;6287;50.984;7.022;2022-10-16T18:58:44;17.90;99.90
12446;DHT22;6287;50.984;7.022;2022-10-16T19:01:15;17.80;99.90